Time;durP1;ratioP1;P1;durP2;ratioP2;P2;SDS_P1;SDS_P2;PMS_P1;PMS_P2;Temp;Humidity;BMP_temperature;BMP_pressure;BME280_temperature;BME280_humidity;BME280_pressure;Samples;Min_cycle;Max_cycle;Signal;HPM_P1;HPM_P2
2023/05/15 00:01:04;;;;;;;11.57;9.73;;;13.70;99.90;;;;;;5032447;28;20278;-68
2023/05/15 00:03:30;;;;;;;17.90;10.20;;;13.70;99.90;;;;;;5037387;28;20194;-68
2023/05/15 00:05:55;;;;;;;15.67;10.20;;;13.60;99.90;;;;;;5039711;28;20203;-68
2023/05/15 00:08:21;;;;;;;10.33;9.43;;;13.40;99.90;;;;;;5037277;28;20218;-69
2023/05/15 00:10:47;;;;;;;13.30;9.63;;;13.30;99.90;;;;;;5038444;28;20198;-68
2023/05/15 00:13:12;;;;;;;10.77;9.50;;;13.30;99.90;;;;;;5039527;28;20230;-68
2023/05/15 00:15:38;;;;;;;11.33;9.07;;;13.30;99.90;;;;;;5030120;28;20657;-68
2023/05/15 00:18:03;;;;;;;11.93;9.47;;;13.30;99.90;;;;;;5034609;28;20733;-68
2023/05/15 00:20:29;;;;;;;10.20;9.07;;;13.30;99.90;;;;;;5031442;28;20195;-69
2023/05/15 00:22:54;;;;;;;10.40;9.50;;;13.30;99.90;;;;;;5028511;28;20209;-69
2023/05/15 00:25:20;;;;;;;10.53;9.43;;;13.30;99.90;;;;;;5032768;28;20202;-68
2023/05/15 00:27:45;;;;;;;10.00;8.73;;;13.30;99.90;;;;;;5034715;28;20673;-68
2023/05/15 00:30:12;;;;;;;10.53;9.47;;;13.20;99.90;;;;;;5038639;28;20806;-69
2023/05/15 00:32:38;;;;;;;10.57;9.50;;;13.30;99.90;;;;;;5038671;28;20733;-69
2023/05/15 00:35:04;;;;;;;11.33;10.23;;;13.30;99.90;;;;;;5036576;28;20312;-69
2023/05/15 00:37:30;;;;;;;12.53;10.03;;;13.30;99.90;;;;;;5037999;28;20661;-69
2023/05/15 00:39:55;;;;;;;13.87;9.10;;;13.30;99.90;;;;;;5038531;28;20214;-68
2023/05/15 00:42:23;;;;;;;10.97;9.33;;;13.30;99.90;;;;;;5038841;28;20209;-68
2023/05/15 00:44:48;;;;;;;11.40;9.37;;;13.30;99.90;;;;;;5037035;28;20297;-68
2023/05/15 00:47:15;;;;;;;11.00;9.87;;;13.30;99.90;;;;;;5038566;28;20332;-67
2023/05/15 00:49:41;;;;;;;12.53;9.90;;;13.20;99.90;;;;;;5037994;28;20292;-67
2023/05/15 00:52:07;;;;;;;9.80;8.90;;;13.20;99.90;;;;;;5032357;28;20207;-67
2023/05/15 00:54:33;;;;;;;10.70;9.70;;;13.20;99.90;;;;;;5034338;28;20563;-67
2023/05/15 00:57:00;;;;;;;10.53;9.47;;;13.10;99.90;;;;;;5027340;28;20691;-68
2023/05/15 00:59:28;;;;;;;10.80;9.70;;;13.20;99.90;;;;;;5028798;28;20227;-67
2023/05/15 01:01:54;;;;;;;10.83;9.87;;;13.20;99.90;;;;;;5029239;28;20670;-67
2023/05/15 01:04:20;;;;;;;11.83;10.30;;;13.20;99.90;;;;;;5038383;28;20206;-67
2023/05/15 01:06:46;;;;;;;11.23;10.10;;;13.20;99.90;;;;;;5038614;28;21356;-67
2023/05/15 01:09:12;;;;;;;13.40;10.07;;;13.20;99.90;;;;;;5038069;28;20214;-66
2023/05/15 01:11:40;;;;;;;10.70;9.60;;;13.20;99.90;;;;;;5038297;28;20286;-67
2023/05/15 01:14:07;;;;;;;13.07;10.47;;;13.10;99.90;;;;;;5037833;28;20199;-67
2023/05/15 01:16:33;;;;;;;11.40;10.27;;;13.10;99.90;;;;;;5027888;28;20206;-67
2023/05/15 01:18:59;;;;;;;16.03;10.53;;;13.10;99.90;;;;;;5031204;28;20732;-67
2023/05/15 01:22:11;;;;;;;11.33;10.13;;;13.10;99.90;;;;;;5035740;28;20195;-67
2023/05/15 01:25:31;;;;;;;12.27;11.00;;;13.10;99.90;;;;;;5038086;28;20572;-67
2023/05/15 01:28:07;;;;;;;13.30;10.20;;;13.00;99.90;;;;;;5003939;28;20713;-67
2023/05/15 01:30:39;;;;;;;10.40;9.33;;;12.90;99.90;;;;;;5037942;28;20749;-67
2023/05/15 01:33:38;;;;;;;11.73;10.63;;;12.90;99.90;;;;;;5035650;28;20207;-67
2023/05/15 01:36:28;;;;;;;12.27;10.43;;;12.90;99.90;;;;;;5028788;28;20200;-66
2023/05/15 01:38:58;;;;;;;10.13;8.93;;;12.90;99.90;;;;;;5034073;28;20211;-66
2023/05/15 01:41:45;;;;;;;10.87;9.77;;;12.90;99.90;;;;;;5028925;28;20203;-67
2023/05/15 01:44:18;;;;;;;13.33;10.43;;;12.90;99.90;;;;;;5031914;28;20199;-67
2023/05/15 01:46:48;;;;;;;12.37;10.43;;;12.80;99.90;;;;;;5035073;28;20546;-67
2023/05/15 01:49:17;;;;;;;17.40;11.50;;;12.60;99.90;;;;;;5037203;28;20225;-66
2023/05/15 01:51:44;;;;;;;11.53;10.47;;;12.50;99.90;;;;;;5037157;28;20606;-67
2023/05/15 01:54:12;;;;;;;11.27;9.90;;;12.70;99.90;;;;;;5035543;28;20277;-71
2023/05/15 01:56:39;;;;;;;13.63;11.13;;;12.70;99.90;;;;;;5037100;28;20229;-71
2023/05/15 01:59:06;;;;;;;11.93;9.90;;;12.40;99.90;;;;;;5027738;28;20199;-67
2023/05/15 02:01:33;;;;;;;16.70;11.43;;;12.50;99.90;;;;;;5037085;28;20233;-68
2023/05/15 02:04:01;;;;;;;11.63;10.30;;;12.40;99.90;;;;;;5031006;28;20211;-67
2023/05/15 02:06:27;;;;;;;11.27;10.17;;;12.50;99.90;;;;;;5034582;28;20205;-67
2023/05/15 02:08:55;;;;;;;11.23;10.10;;;12.50;99.90;;;;;;5036925;28;20215;-68
2023/05/15 02:11:21;;;;;;;12.40;10.73;;;12.60;99.90;;;;;;5034779;28;20292;-68
2023/05/15 02:13:47;;;;;;;11.60;10.40;;;12.60;99.90;;;;;;5036682;28;20191;-67
2023/05/15 02:16:13;;;;;;;13.03;10.33;;;12.50;99.90;;;;;;5036721;28;20274;-67
2023/05/15 02:18:38;;;;;;;13.73;10.90;;;12.50;99.90;;;;;;5027846;28;20282;-67
2023/05/15 02:21:04;;;;;;;11.73;10.53;;;12.50;99.90;;;;;;5035841;28;20743;-67
2023/05/15 02:23:29;;;;;;;13.17;11.00;;;12.40;99.90;;;;;;5033464;28;20204;-67
2023/05/15 02:26:12;;;;;;;11.40;10.30;;;12.30;99.90;;;;;;5036523;28;20242;-67
2023/05/15 02:28:49;;;;;;;11.83;10.37;;;12.40;99.90;;;;;;5036685;28;20689;-67
2023/05/15 02:31:28;;;;;;;12.77;11.43;;;12.40;99.90;;;;;;5031111;28;20207;-66
2023/05/15 02:34:17;;;;;;;10.30;9.40;;;12.40;99.90;;;;;;5021983;28;20210;-67
2023/05/15 02:36:45;;;;;;;11.20;10.00;;;12.50;99.90;;;;;;5028086;28;20199;-67
2023/05/15 02:39:13;;;;;;;12.40;11.10;;;12.50;99.90;;;;;;5024854;28;20215;-67
2023/05/15 02:41:39;;;;;;;12.10;10.90;;;12.50;99.90;;;;;;5026779;28;20241;-66
2023/05/15 02:44:05;;;;;;;13.47;11.53;;;12.40;99.90;;;;;;5026235;28;20211;-67
2023/05/15 02:46:31;;;;;;;14.53;10.93;;;12.40;99.90;;;;;;5026074;28;20207;-66
2023/05/15 02:48:57;;;;;;;13.90;10.13;;;12.40;99.90;;;;;;5026649;28;20708;-67
2023/05/15 02:51:23;;;;;;;11.37;10.23;;;12.40;99.90;;;;;;5029189;28;20194;-68
2023/05/15 02:53:48;;;;;;;14.17;11.27;;;12.40;99.90;;;;;;5026107;28;20205;-67
2023/05/15 02:56:14;;;;;;;14.20;10.77;;;12.40;99.90;;;;;;5023481;28;20572;-68
2023/05/15 02:58:40;;;;;;;13.43;11.23;;;12.40;99.90;;;;;;5026763;28;20257;-67
2023/05/15 03:01:05;;;;;;;13.97;11.70;;;12.30;99.90;;;;;;5026955;28;20217;-66
2023/05/15 03:03:31;;;;;;;16.10;10.50;;;12.30;99.90;;;;;;5026798;28;20594;-67
2023/05/15 03:05:57;;;;;;;13.33;11.53;;;12.30;99.90;;;;;;5025019;28;20218;-67
2023/05/15 03:08:22;;;;;;;12.80;11.07;;;12.40;99.90;;;;;;5025882;28;20210;-67
2023/05/15 03:10:47;;;;;;;13.13;11.23;;;12.30;99.90;;;;;;5025983;28;20318;-67
2023/05/15 03:13:13;;;;;;;16.73;11.33;;;12.30;99.90;;;;;;5026256;28;20676;-67
2023/05/15 03:15:38;;;;;;;14.40;10.30;;;12.30;99.90;;;;;;5026229;28;20191;-67
2023/05/15 03:18:04;;;;;;;13.37;11.40;;;12.30;99.90;;;;;;5026119;28;20194;-67
2023/05/15 03:20:29;;;;;;;11.90;10.60;;;12.30;99.90;;;;;;5023123;28;20196;-67
2023/05/15 03:22:55;;;;;;;14.27;10.60;;;12.10;99.90;;;;;;5026496;28;20256;-67
2023/05/15 03:25:21;;;;;;;13.90;10.43;;;12.10;99.90;;;;;;5026630;28;20206;-67
2023/05/15 03:27:46;;;;;;;13.30;10.80;;;12.10;99.90;;;;;;5028376;28;20241;-66
2023/05/15 03:30:12;;;;;;;12.63;10.57;;;12.30;99.90;;;;;;5025560;28;20750;-66
2023/05/15 03:32:37;;;;;;;11.77;10.07;;;12.30;99.90;;;;;;5024270;28;20674;-67
2023/05/15 03:35:03;;;;;;;10.97;9.90;;;12.10;99.90;;;;;;5025684;28;20203;-67
2023/05/15 03:37:28;;;;;;;16.93;11.43;;;12.10;99.90;;;;;;5026098;28;20543;-68
2023/05/15 03:39:54;;;;;;;12.20;11.10;;;12.00;99.90;;;;;;5026996;28;20222;-67
2023/05/15 03:42:22;;;;;;;13.03;11.63;;;12.10;99.90;;;;;;5023304;28;20214;-67
2023/05/15 03:44:48;;;;;;;13.80;11.30;;;12.10;99.90;;;;;;5024580;28;20478;-67
2023/05/15 03:47:14;;;;;;;12.33;11.07;;;12.10;99.90;;;;;;5030348;28;20329;-67
2023/05/15 03:49:40;;;;;;;12.70;11.23;;;12.10;99.90;;;;;;5032277;28;20293;-68
2023/05/15 03:52:06;;;;;;;17.53;12.33;;;12.20;99.90;;;;;;5029341;28;20191;-68
2023/05/15 03:54:32;;;;;;;15.37;12.33;;;12.20;99.90;;;;;;5028666;28;20195;-67
2023/05/15 03:56:57;;;;;;;13.47;12.10;;;12.20;99.90;;;;;;5028449;28;20249;-65
2023/05/15 03:59:23;;;;;;;18.17;11.90;;;12.20;99.90;;;;;;5029193;28;20289;-67
2023/05/15 04:01:48;;;;;;;15.20;11.90;;;12.20;99.90;;;;;;5029365;28;20282;-65
2023/05/15 04:04:14;;;;;;;18.10;12.23;;;12.10;99.90;;;;;;5029046;28;20534;-66
2023/05/15 04:06:39;;;;;;;16.97;11.80;;;12.20;99.90;;;;;;5029052;28;20192;-66
2023/05/15 04:09:05;;;;;;;12.73;11.47;;;12.20;99.90;;;;;;5028954;28;20227;-66
2023/05/15 04:11:30;;;;;;;12.30;11.00;;;12.30;99.90;;;;;;5031664;28;20218;-67
2023/05/15 04:13:56;;;;;;;13.43;12.13;;;12.30;99.90;;;;;;5025878;28;20955;-66
2023/05/15 04:16:21;;;;;;;13.40;11.60;;;12.30;99.90;;;;;;5029079;28;20229;-66
2023/05/15 04:18:47;;;;;;;12.87;11.63;;;12.20;99.90;;;;;;5030071;28;20199;-67
2023/05/15 04:21:12;;;;;;;11.80;10.60;;;12.20;99.90;;;;;;5027486;28;20629;-67
2023/05/15 04:23:40;;;;;;;16.60;11.50;;;12.30;99.90;;;;;;5026615;28;20203;-68
2023/05/15 04:26:07;;;;;;;11.13;10.13;;;12.30;99.90;;;;;;5031373;28;20263;-68
2023/05/15 04:28:32;;;;;;;15.53;11.43;;;12.40;99.90;;;;;;5038261;28;20652;-68
2023/05/15 04:30:58;;;;;;;12.47;11.17;;;12.40;99.90;;;;;;5029280;28;20222;-68
2023/05/15 04:33:23;;;;;;;14.30;11.43;;;12.40;99.90;;;;;;5037837;28;20210;-67
2023/05/15 04:35:49;;;;;;;12.63;11.37;;;12.50;99.90;;;;;;5027073;28;20195;-68
2023/05/15 04:38:15;;;;;;;13.77;11.10;;;12.60;99.90;;;;;;5036815;28;20238;-67
2023/05/15 04:40:40;;;;;;;16.23;13.50;;;12.60;99.90;;;;;;5030125;28;20187;-68
2023/05/15 04:43:06;;;;;;;12.23;11.03;;;12.50;99.90;;;;;;5028836;28;20991;-68
2023/05/15 04:45:31;;;;;;;12.37;11.20;;;12.60;99.90;;;;;;5037858;28;20195;-68
2023/05/15 04:47:57;;;;;;;12.97;11.67;;;12.60;99.90;;;;;;5038365;28;20207;-68
2023/05/15 04:50:22;;;;;;;13.33;11.97;;;12.70;99.90;;;;;;5036230;28;20684;-68
2023/05/15 04:52:48;;;;;;;13.50;12.17;;;12.60;99.90;;;;;;5023499;28;20228;-68
2023/05/15 04:55:13;;;;;;;13.37;11.83;;;12.70;99.90;;;;;;5034755;28;20209;-68
2023/05/15 04:57:39;;;;;;;12.00;10.83;;;12.80;99.90;;;;;;5037873;28;20218;-69
2023/05/15 05:00:10;;;;;;;13.67;12.37;;;12.80;99.90;;;;;;5038165;28;20570;-68
2023/05/15 05:02:36;;;;;;;14.70;12.30;;;12.90;99.90;;;;;;5036402;28;20202;-69
2023/05/15 05:05:02;;;;;;;13.40;12.10;;;13.00;99.90;;;;;;5036839;28;20214;-68
2023/05/15 05:07:27;;;;;;;14.40;12.40;;;13.10;99.90;;;;;;5029505;28;20739;-68
2023/05/15 05:09:53;;;;;;;13.97;12.10;;;13.10;99.90;;;;;;5028432;28;20228;-68
2023/05/15 05:12:18;;;;;;;16.70;12.97;;;13.20;99.90;;;;;;5037233;28;20194;-68
2023/05/15 05:14:44;;;;;;;15.97;13.43;;;13.20;99.90;;;;;;5037760;28;20293;-68
2023/05/15 05:17:09;;;;;;;15.83;12.97;;;13.30;99.90;;;;;;5036110;28;20849;-68
2023/05/15 05:19:35;;;;;;;16.00;12.27;;;13.30;99.90;;;;;;5037751;28;20218;-68
2023/05/15 05:22:03;;;;;;;13.03;11.73;;;13.40;99.90;;;;;;5036375;28;20288;-68
2023/05/15 05:24:30;;;;;;;15.47;13.97;;;13.40;99.90;;;;;;5038024;28;20198;-69
2023/05/15 05:26:59;;;;;;;15.37;12.27;;;13.50;99.90;;;;;;5036695;28;20219;-69
2023/05/15 05:29:25;;;;;;;15.63;12.30;;;13.50;99.90;;;;;;5017340;28;20280;-69
2023/05/15 05:31:52;;;;;;;14.03;12.23;;;13.50;99.90;;;;;;5037558;28;20222;-68
2023/05/15 05:34:18;;;;;;;11.83;10.63;;;13.60;99.90;;;;;;5037561;28;20241;-68
2023/05/15 05:36:44;;;;;;;11.70;9.77;;;13.60;99.90;;;;;;5037610;28;20298;-68
2023/05/15 05:39:09;;;;;;;10.43;9.43;;;13.70;99.90;;;;;;5032818;28;20302;-67
2023/05/15 05:41:35;;;;;;;14.30;10.33;;;13.80;99.90;;;;;;5031237;28;20331;-68
2023/05/15 05:44:00;;;;;;;10.23;9.23;;;13.80;99.90;;;;;;5037624;28;20230;-72
2023/05/15 05:46:26;;;;;;;9.17;8.27;;;13.90;99.90;;;;;;5037335;28;20233;-68
2023/05/15 05:48:51;;;;;;;12.37;7.87;;;14.00;99.90;;;;;;5036102;28;20688;-68
2023/05/15 05:51:17;;;;;;;11.03;8.53;;;14.10;99.90;;;;;;5037214;28;20750;-72
2023/05/15 05:53:43;;;;;;;11.43;9.87;;;14.20;99.90;;;;;;5028200;28;20195;-68
2023/05/15 05:56:09;;;;;;;11.73;9.10;;;14.30;99.90;;;;;;5036296;28;20244;-68
2023/05/15 05:58:34;;;;;;;8.70;7.90;;;14.40;99.90;;;;;;5037447;28;20516;-68
2023/05/15 06:01:00;;;;;;;8.70;7.70;;;14.50;99.90;;;;;;5037370;28;20261;-67
2023/05/15 06:03:26;;;;;;;10.47;8.00;;;14.60;99.90;;;;;;5036143;28;20271;-69
2023/05/15 06:05:52;;;;;;;9.47;8.33;;;14.60;99.90;;;;;;5030906;28;20203;-68
2023/05/15 06:08:18;;;;;;;8.43;7.10;;;14.80;99.90;;;;;;5033112;28;20207;-68
2023/05/15 06:10:44;;;;;;;8.10;7.30;;;14.90;99.90;;;;;;5037152;28;20197;-68
2023/05/15 06:13:10;;;;;;;8.97;8.07;;;14.90;99.90;;;;;;5032871;28;20192;-68
2023/05/15 06:15:36;;;;;;;8.07;6.60;;;15.00;99.90;;;;;;5027444;28;20987;-68
2023/05/15 06:18:02;;;;;;;8.40;7.40;;;15.10;99.90;;;;;;5025594;28;20710;-67
2023/05/15 06:20:27;;;;;;;7.73;6.93;;;15.10;99.90;;;;;;5024885;28;20249;-67
2023/05/15 06:22:53;;;;;;;9.17;6.90;;;15.20;99.90;;;;;;5025000;28;20815;-66
2023/05/15 06:25:18;;;;;;;10.37;7.33;;;15.20;99.90;;;;;;5024586;28;20318;-67
2023/05/15 06:27:44;;;;;;;9.37;7.60;;;15.20;99.90;;;;;;5030635;28;20194;-66
2023/05/15 06:30:11;;;;;;;7.47;6.80;;;15.40;99.90;;;;;;5028584;28;20306;-67
2023/05/15 06:32:36;;;;;;;12.93;7.20;;;15.50;99.90;;;;;;5025535;28;20282;-68
2023/05/15 06:35:02;;;;;;;9.20;6.53;;;15.50;99.90;;;;;;5025277;28;20661;-68
2023/05/15 06:37:29;;;;;;;7.03;6.17;;;15.50;99.90;;;;;;5018966;28;20190;-68
2023/05/15 06:39:55;;;;;;;12.40;6.77;;;15.50;99.90;;;;;;5021843;28;20201;-71
2023/05/15 06:42:21;;;;;;;6.20;5.70;;;15.40;99.90;;;;;;5018205;28;20289;-71
2023/05/15 06:44:48;;;;;;;8.23;7.03;;;15.40;99.90;;;;;;5021944;28;20661;-71
2023/05/15 06:47:13;;;;;;;11.27;8.00;;;15.40;99.90;;;;;;5020670;28;20677;-67
2023/05/15 06:49:39;;;;;;;7.80;7.07;;;15.50;99.90;;;;;;5017795;28;20234;-73
2023/05/15 06:52:05;;;;;;;7.77;7.07;;;15.50;99.90;;;;;;5019902;28;20202;-77
2023/05/15 06:54:30;;;;;;;7.70;7.00;;;15.50;99.90;;;;;;5030653;28;20665;-78
2023/05/15 06:56:56;;;;;;;7.80;7.00;;;15.50;99.90;;;;;;5025346;28;20201;-78
2023/05/15 06:59:21;;;;;;;12.37;8.07;;;15.50;99.90;;;;;;5025673;28;20278;-78
2023/05/15 07:01:47;;;;;;;8.10;7.30;;;15.60;99.90;;;;;;5026999;28;20190;-77
2023/05/15 07:04:12;;;;;;;11.33;6.93;;;15.60;99.90;;;;;;5023185;28;20675;-77
2023/05/15 07:06:38;;;;;;;7.33;6.70;;;15.60;99.90;;;;;;5025995;28;20204;-77
2023/05/15 07:09:03;;;;;;;6.90;6.30;;;15.60;99.90;;;;;;5025848;28;20741;-82
2023/05/15 07:11:29;;;;;;;7.00;6.40;;;15.70;99.90;;;;;;5021611;28;20195;-74
2023/05/15 07:13:55;;;;;;;6.63;5.80;;;15.80;99.90;;;;;;5016234;28;20671;-74
2023/05/15 07:16:20;;;;;;;9.00;6.90;;;16.00;99.90;;;;;;5016071;28;20222;-73
2023/05/15 07:18:46;;;;;;;7.63;6.83;;;16.20;99.90;;;;;;5021596;28;20673;-72
2023/05/15 07:21:11;;;;;;;7.33;6.30;;;16.20;99.90;;;;;;5026399;28;20199;-79
2023/05/15 07:23:37;;;;;;;7.10;6.40;;;16.30;99.90;;;;;;5022621;28;20203;-80
2023/05/15 07:26:02;;;;;;;8.97;6.37;;;16.40;99.90;;;;;;5022936;28;20235;-77
2023/05/15 07:28:28;;;;;;;9.50;7.67;;;16.40;99.90;;;;;;5027890;28;20254;-75
2023/05/15 07:30:53;;;;;;;8.80;6.77;;;16.70;99.90;;;;;;5028781;28;20222;-74
2023/05/15 07:33:18;;;;;;;13.37;8.17;;;16.70;99.90;;;;;;5027356;28;20208;-73
2023/05/15 07:35:44;;;;;;;9.20;6.90;;;16.60;99.90;;;;;;5029547;28;20275;-72
2023/05/15 07:38:10;;;;;;;9.73;7.17;;;16.60;99.90;;;;;;5029576;28;20196;-74
2023/05/15 07:40:35;;;;;;;9.13;7.47;;;16.80;99.90;;;;;;5029469;28;20737;-74
2023/05/15 07:43:01;;;;;;;9.10;6.33;;;17.00;99.90;;;;;;5029862;28;20566;-73
2023/05/15 07:45:27;;;;;;;9.33;6.50;;;17.10;99.90;;;;;;5027913;28;20532;-75
2023/05/15 07:47:53;;;;;;;7.67;6.47;;;17.20;99.90;;;;;;5025837;28;20236;-74
2023/05/15 07:50:18;;;;;;;7.23;6.07;;;17.40;99.90;;;;;;5019502;28;20609;-74
2023/05/15 07:52:44;;;;;;;11.00;6.97;;;17.50;99.80;;;;;;5021803;28;20225;-78
2023/05/15 07:55:10;;;;;;;7.93;6.27;;;17.40;99.80;;;;;;5021247;28;20788;-75
2023/05/15 07:57:36;;;;;;;7.80;5.73;;;17.60;99.60;;;;;;5037448;28;20772;-75
2023/05/15 08:00:08;;;;;;;7.23;5.90;;;17.70;99.50;;;;;;5029563;28;21059;-76
2023/05/15 08:02:33;;;;;;;8.50;6.60;;;17.70;99.40;;;;;;5039254;28;20214;-73
2023/05/15 08:04:59;;;;;;;6.50;5.73;;;17.80;99.00;;;;;;5037783;28;20207;-74
2023/05/15 08:07:24;;;;;;;6.37;5.50;;;18.00;99.30;;;;;;5031428;28;20205;-74
2023/05/15 08:09:50;;;;;;;8.67;5.23;;;18.10;98.40;;;;;;5027295;28;20219;-76
2023/05/15 08:12:19;;;;;;;5.87;5.33;;;17.90;97.80;;;;;;5029662;28;20207;-76
2023/05/15 08:14:50;;;;;;;6.67;5.77;;;18.00;97.90;;;;;;5027595;28;20837;-74
2023/05/15 08:17:16;;;;;;;7.10;4.77;;;18.10;96.70;;;;;;5037956;28;20201;-74
2023/05/15 08:19:42;;;;;;;5.90;5.37;;;18.10;97.10;;;;;;5038468;28;20818;-74
2023/05/15 08:22:08;;;;;;;8.10;4.83;;;18.10;97.50;;;;;;5038466;28;20217;-74
2023/05/15 08:24:37;;;;;;;4.80;4.40;;;18.10;96.90;;;;;;5038851;28;20535;-74
2023/05/15 08:27:05;;;;;;;9.60;4.97;;;18.20;96.90;;;;;;5027694;28;20395;-74
2023/05/15 08:29:30;;;;;;;5.20;4.77;;;18.40;96.40;;;;;;5035809;28;20232;-73
2023/05/15 08:31:56;;;;;;;5.57;5.00;;;18.40;95.70;;;;;;5037913;28;20212;-73
2023/05/15 08:34:22;;;;;;;5.33;4.73;;;18.50;95.70;;;;;;5038359;28;20219;-73
2023/05/15 08:36:48;;;;;;;5.03;4.63;;;18.60;95.70;;;;;;5029191;28;20235;-78
2023/05/15 08:39:13;;;;;;;8.00;5.03;;;18.60;96.00;;;;;;5038908;28;20208;-77
2023/05/15 08:42:11;;;;;;;4.97;4.57;;;18.50;95.60;;;;;;5038680;28;20232;-78
2023/05/15 08:44:38;;;;;;;5.87;4.57;;;18.40;95.30;;;;;;5004947;28;20212;-72
2023/05/15 08:47:04;;;;;;;6.47;5.00;;;18.30;95.50;;;;;;5033105;28;20212;-73
2023/05/15 08:50:05;;;;;;;5.13;4.23;;;18.40;95.30;;;;;;5034417;28;20299;-74
2023/05/15 08:52:33;;;;;;;8.80;5.63;;;18.50;94.80;;;;;;5028797;28;20292;-79
2023/05/15 08:55:00;;;;;;;12.73;5.17;;;18.40;94.80;;;;;;5026138;28;20201;-75
2023/05/15 08:57:27;;;;;;;11.03;5.57;;;18.30;94.60;;;;;;5028657;28;20207;-74
2023/05/15 08:59:53;;;;;;;14.23;8.67;;;18.20;95.00;;;;;;5028769;28;20197;-74
2023/05/15 09:02:19;;;;;;;9.63;5.03;;;18.40;95.10;;;;;;5028829;28;20208;-74
2023/05/15 09:04:45;;;;;;;5.63;5.03;;;18.40;95.60;;;;;;5028505;28;20806;-73
2023/05/15 09:07:11;;;;;;;6.33;5.27;;;18.40;95.40;;;;;;5028148;28;20308;-73
2023/05/15 09:09:38;;;;;;;5.37;4.87;;;18.30;95.20;;;;;;5021929;28;20249;-73
2023/05/15 09:12:07;;;;;;;5.40;4.73;;;18.30;95.40;;;;;;5027792;28;20210;-73
2023/05/15 09:14:32;;;;;;;5.77;5.00;;;18.40;94.70;;;;;;5026998;28;20205;-78
2023/05/15 09:16:58;;;;;;;5.77;5.03;;;18.40;95.00;;;;;;5027790;28;20212;-73
2023/05/15 09:19:24;;;;;;;5.53;5.03;;;18.40;95.90;;;;;;5026226;28;20625;-76
2023/05/15 09:21:49;;;;;;;5.93;5.20;;;18.50;95.50;;;;;;5028060;28;20237;-74
2023/05/15 09:24:23;;;;;;;7.50;5.10;;;18.50;95.90;;;;;;5028205;28;20207;-74
2023/05/15 09:27:03;;;;;;;7.03;5.97;;;18.50;96.10;;;;;;5026096;28;20208;-74
2023/05/15 09:29:30;;;;;;;6.93;4.90;;;18.60;95.40;;;;;;5027334;28;20223;-73
2023/05/15 09:32:00;;;;;;;7.40;6.10;;;18.80;94.80;;;;;;5031437;28;20208;-74
2023/05/15 09:34:34;;;;;;;5.03;4.63;;;18.90;95.10;;;;;;5036774;28;20214;-73
2023/05/15 09:37:01;;;;;;;6.57;5.30;;;18.90;95.50;;;;;;5037183;28;20205;-74
2023/05/15 09:39:26;;;;;;;5.43;5.03;;;19.00;95.10;;;;;;5037271;28;20199;-73
2023/05/15 09:41:55;;;;;;;5.90;5.30;;;19.00;95.30;;;;;;5035053;28;20205;-72
2023/05/15 09:44:25;;;;;;;7.93;5.30;;;19.00;95.30;;;;;;5036683;28;20198;-73
2023/05/15 09:46:51;;;;;;;5.73;5.20;;;19.00;94.80;;;;;;5037400;28;20951;-72
2023/05/15 09:49:18;;;;;;;5.70;5.10;;;19.10;94.60;;;;;;5032759;28;20237;-72
2023/05/15 09:51:43;;;;;;;6.43;4.90;;;19.20;95.30;;;;;;5027254;28;20299;-73
2023/05/15 09:54:18;;;;;;;7.83;5.17;;;19.20;95.40;;;;;;5030504;28;20352;-74
2023/05/15 09:56:45;;;;;;;5.47;4.80;;;19.30;95.00;;;;;;5037481;28;20679;-76
2023/05/15 09:59:20;;;;;;;7.60;5.13;;;19.40;95.50;;;;;;5027368;28;20212;-76
2023/05/15 10:01:48;;;;;;;6.03;5.33;;;19.40;95.20;;;;;;5034970;28;20710;-77
2023/05/15 10:04:14;;;;;;;5.63;4.73;;;19.50;95.50;;;;;;5037543;28;20204;-79
2023/05/15 10:06:41;;;;;;;8.97;4.83;;;19.50;93.90;;;;;;5036993;28;20198;-75
2023/05/15 10:09:06;;;;;;;6.23;4.73;;;19.70;93.70;;;;;;5033006;28;20242;-79
2023/05/15 10:11:35;;;;;;;7.33;4.43;;;19.80;94.00;;;;;;5029794;28;20194;-75
2023/05/15 10:14:01;;;;;;;7.87;4.63;;;20.00;93.80;;;;;;5027820;28;20295;-77
2023/05/15 10:16:28;;;;;;;5.20;4.70;;;19.90;94.20;;;;;;5036635;28;20211;-74
2023/05/15 10:18:56;;;;;;;8.43;4.57;;;20.00;93.10;;;;;;5027173;28;20289;-74
2023/05/15 10:21:22;;;;;;;6.43;4.70;;;20.00;92.90;;;;;;5033395;28;20214;-72
2023/05/15 10:23:49;;;;;;;5.07;4.57;;;19.80;92.80;;;;;;5027474;28;20676;-73
2023/05/15 10:26:21;;;;;;;5.10;4.70;;;20.00;92.40;;;;;;5037184;28;20321;-74
2023/05/15 10:28:47;;;;;;;4.57;4.10;;;19.90;92.30;;;;;;5036794;28;20799;-78
2023/05/15 10:31:13;;;;;;;4.10;3.80;;;19.90;91.20;;;;;;5033084;28;20676;-84
2023/05/15 10:33:39;;;;;;;6.77;4.40;;;19.80;90.70;;;;;;5033284;28;20459;-82
2023/05/15 10:36:06;;;;;;;4.57;4.03;;;19.80;90.10;;;;;;5029398;28;20206;-82
2023/05/15 10:38:32;;;;;;;4.43;4.00;;;19.90;91.50;;;;;;5037385;28;20234;-82
2023/05/15 10:40:59;;;;;;;3.90;3.60;;;19.70;90.60;;;;;;5027994;28;20543;-80
2023/05/15 10:43:26;;;;;;;4.00;3.37;;;19.60;90.30;;;;;;5036640;28;20232;-81
2023/05/15 10:45:52;;;;;;;6.47;4.43;;;19.60;88.80;;;;;;5038114;28;20725;-81
2023/05/15 10:48:18;;;;;;;5.07;3.90;;;19.70;89.10;;;;;;5020450;28;20619;-82
2023/05/15 10:50:44;;;;;;;5.37;3.93;;;19.60;90.10;;;;;;5030364;28;20706;-84
2023/05/15 10:53:10;;;;;;;4.43;3.90;;;19.60;90.90;;;;;;5024985;28;20230;-81
2023/05/15 10:55:36;;;;;;;4.40;4.00;;;19.60;91.30;;;;;;5024243;28;20298;-82
2023/05/15 10:58:07;;;;;;;3.87;3.57;;;19.60;91.00;;;;;;5028090;28;20937;-82
2023/05/15 11:00:39;;;;;;;4.90;3.80;;;19.60;91.80;;;;;;5023556;28;20206;-83
2023/05/15 11:03:05;;;;;;;4.53;4.13;;;19.60;91.50;;;;;;5023167;28;20210;-82
2023/05/15 11:06:07;;;;;;;4.63;4.23;;;19.50;92.80;;;;;;5029491;28;20230;-78
2023/05/15 11:08:33;;;;;;;7.47;4.80;;;19.20;93.20;;;;;;5019022;28;20197;-75
2023/05/15 11:10:58;;;;;;;5.57;4.93;;;19.40;92.70;;;;;;5024661;28;20203;-85
2023/05/15 11:13:24;;;;;;;6.00;3.90;;;19.50;92.70;;;;;;5039949;28;20552;-85
2023/05/15 11:15:50;;;;;;;5.67;4.57;;;19.40;92.20;;;;;;5042754;28;20209;-86
2023/05/15 11:18:16;;;;;;;4.37;4.03;;;19.50;92.30;;;;;;5033031;28;20239;-85
2023/05/15 11:20:51;;;;;;;5.50;4.33;;;19.60;92.60;;;;;;5028846;28;20219;-84
2023/05/15 11:23:20;;;;;;;4.80;3.73;;;19.60;92.60;;;;;;5025724;28;20194;-72
2023/05/15 11:25:53;;;;;;;4.83;4.30;;;19.80;93.00;;;;;;5038964;28;20698;-82
2023/05/15 11:28:23;;;;;;;5.57;4.40;;;19.90;92.80;;;;;;5031275;28;20206;-80
2023/05/15 11:30:58;;;;;;;4.90;4.47;;;20.00;92.70;;;;;;5039200;28;20202;-85
2023/05/15 11:33:27;;;;;;;4.63;4.23;;;20.00;93.20;;;;;;5029142;28;20692;-82
2023/05/15 11:36:00;;;;;;;4.47;4.07;;;20.00;92.70;;;;;;5041911;28;20230;-83
2023/05/15 11:38:26;;;;;;;4.10;3.80;;;20.10;93.10;;;;;;5046082;28;20264;-83
2023/05/15 11:41:02;;;;;;;7.43;4.63;;;20.40;93.40;;;;;;5041213;28;20191;-82
2023/05/15 11:43:31;;;;;;;4.17;3.77;;;20.60;91.50;;;;;;5052951;28;20208;-83
2023/05/15 11:46:05;;;;;;;4.20;3.90;;;20.60;89.90;;;;;;5049927;28;20198;-82
2023/05/15 11:48:33;;;;;;;4.47;3.77;;;21.20;90.20;;;;;;5039745;28;20199;-83
2023/05/15 11:51:03;;;;;;;6.10;4.20;;;21.60;90.70;;;;;;5038748;28;20252;-83
2023/05/15 11:53:30;;;;;;;4.00;3.67;;;21.90;89.40;;;;;;5042014;28;20668;-83
2023/05/15 11:55:56;;;;;;;3.87;3.47;;;22.10;86.70;;;;;;5040415;28;20203;-82
2023/05/15 11:58:23;;;;;;;3.45;3.15;;;22.20;84.40;;;;;;5030661;28;20207;-83
2023/05/15 12:00:50;;;;;;;4.03;3.63;;;22.50;84.40;;;;;;5041128;28;20269;-83
2023/05/15 12:03:32;;;;;;;3.38;3.17;;;22.70;84.40;;;;;;5037282;28;20279;-83
2023/05/15 12:06:00;;;;;;;3.70;3.25;;;22.90;85.70;;;;;;5022345;28;20254;-83
2023/05/15 12:08:31;;;;;;;3.40;3.10;;;23.00;80.80;;;;;;5031834;28;20326;-83
2023/05/15 12:10:57;;;;;;;3.10;2.75;;;22.90;77.60;;;;;;5035741;28;20220;-82
2023/05/15 12:13:23;;;;;;;3.63;3.33;;;23.10;74.90;;;;;;5037806;28;20225;-82
2023/05/15 12:15:50;;;;;;;3.70;2.90;;;23.00;75.90;;;;;;5031127;28;20935;-82
2023/05/15 12:18:15;;;;;;;3.80;3.40;;;23.30;78.20;;;;;;5039097;28;20213;-82
2023/05/15 12:20:45;;;;;;;4.10;3.17;;;23.40;74.80;;;;;;5039341;28;20684;-83
2023/05/15 12:23:15;;;;;;;4.55;2.60;;;23.70;75.50;;;;;;5034498;28;20217;-83
2023/05/15 12:25:42;;;;;;;4.15;2.33;;;23.50;67.40;;;;;;5040323;28;20326;-83
2023/05/15 12:28:08;;;;;;;10.63;6.00;;;23.20;67.20;;;;;;5040123;28;20713;-83
2023/05/15 12:30:34;;;;;;;3.60;3.30;;;23.30;67.60;;;;;;5031796;28;20473;-83
2023/05/15 12:33:02;;;;;;;3.35;2.30;;;23.30;69.00;;;;;;5039207;28;20213;-83
2023/05/15 12:35:28;;;;;;;2.90;2.70;;;23.30;67.50;;;;;;5029891;28;20238;-83
2023/05/15 12:37:54;;;;;;;3.90;3.45;;;23.00;69.00;;;;;;5037018;28;20196;-83
2023/05/15 12:40:20;;;;;;;3.35;3.05;;;23.20;69.60;;;;;;5038910;28;20477;-83